Time;durP1;ratioP1;P1;durP2;ratioP2;P2;SDS_P1;SDS_P2;PMS_P1;PMS_P2;Temp;Humidity;BMP_temperature;BMP_pressure;BME280_temperature;BME280_humidity;BME280_pressure;Samples;Min_cycle;Max_cycle;Signal;HPM_P1;HPM_P2
2021/08/21 00:00:49;;;;;;;;;;;;;;;-144.99;99.79;52456.25;5060550;28;20340;-75
2021/08/21 00:03:15;;;;;;;;;;;;;;;-144.99;99.72;52476.63;5044181;28;19997;-75
2021/08/21 00:05:43;;;;;;;;;;;;;;;-144.99;99.74;52497.00;5050164;28;19980;-77
2021/08/21 00:08:09;;;;;;;;;;;;;;;-144.99;99.58;52468.47;5067465;28;19977;-75
2021/08/21 00:10:36;;;;;;;;;;;;;;;-144.99;99.54;52419.56;5053253;28;19995;-74
2021/08/21 00:13:02;;;;;;;;;;;;;;;-144.99;99.63;52435.88;5063430;28;20003;-74
2021/08/21 00:15:28;;;;;;;;;;;;;;;-144.99;99.40;52476.63;5053784;28;19957;-73
2021/08/21 00:17:55;;;;;;;;;;;;;;;-144.99;99.58;52507.19;5065278;28;19973;-74
2021/08/21 00:20:21;;;;;;;;;;;;;;;-144.99;99.50;52490.91;5058728;28;20156;-74
2021/08/21 00:22:49;;;;;;;;;;;;;;;-144.99;99.72;52460.31;5062181;28;20008;-75
2021/08/21 00:25:15;;;;;;;;;;;;;;;-144.99;99.67;52468.47;5054470;28;19985;-75
2021/08/21 00:27:42;;;;;;;;;;;;;;;-144.99;99.68;52484.78;5066227;28;19986;-76
2021/08/21 00:30:09;;;;;;;;;;;;;;;-144.99;99.52;52464.41;5060755;28;20389;-77
2021/08/21 00:32:36;;;;;;;;;;;;;;;-144.99;99.50;52497.00;5052941;28;20078;-76
2021/08/21 00:35:02;;;;;;;;;;;;;;;-144.99;99.16;52464.41;5050538;28;20436;-76
2021/08/21 00:37:28;;;;;;;;;;;;;;;-144.99;99.08;52472.56;5052622;28;20335;-77
2021/08/21 00:39:56;;;;;;;;;;;;;;;-144.99;99.08;52456.25;5062503;28;19990;-75
2021/08/21 00:42:22;;;;;;;;;;;;;;;-144.99;98.91;52439.94;5051236;28;19995;-75
2021/08/21 00:44:49;;;;;;;;;;;;;;;-144.99;98.74;52468.47;5050244;28;19979;-76
2021/08/21 00:47:16;;;;;;;;;;;;;;;-144.99;98.67;52468.47;5049778;28;20358;-75
2021/08/21 00:49:43;;;;;;;;;;;;;;;-144.99;98.73;52480.72;5049418;28;19980;-76
2021/08/21 00:52:11;;;;;;;;;;;;;;;-144.99;98.90;52488.84;5049121;28;20425;-76
2021/08/21 00:54:39;;;;;;;;;;;;;;;-144.99;99.76;52462.34;5049988;28;19980;-75
2021/08/21 00:57:06;;;;;;;;;;;;;;;-144.99;100.00;52472.56;5051077;28;20418;-74
2021/08/21 00:59:33;;;;;;;;;;;;;;;-144.99;100.00;52484.78;5049955;28;20002;-76
2021/08/21 01:02:00;;;;;;;;;;;;;;;-144.99;100.00;52460.31;5052778;28;20027;-77
2021/08/21 01:04:26;;;;;;;;;;;;;;;-144.99;99.74;52482.75;5068780;28;19979;-76
2021/08/21 01:06:52;;;;;;;;;;;;;;;-144.99;99.66;52476.63;5056110;28;19978;-77
2021/08/21 01:09:18;;;;;;;;;;;;;;;-144.99;99.69;52458.28;5053450;28;20465;-77
2021/08/21 01:11:46;;;;;;;;;;;;;;;-144.99;99.72;52480.72;5059544;28;20468;-77
2021/08/21 01:14:14;;;;;;;;;;;;;;;-144.99;99.54;52488.84;5057110;28;19980;-77
2021/08/21 01:16:41;;;;;;;;;;;;;;;-144.99;100.00;52511.28;5060738;28;19973;-77
2021/08/21 01:19:08;;;;;;;;;;;;;;;-144.99;99.84;52454.22;5060671;28;20347;-75
2021/08/21 01:21:34;;;;;;;;;;;;;;;-144.99;99.83;52478.66;5054988;28;19973;-75
2021/08/21 01:24:01;;;;;;;;;;;;;;;-144.99;99.79;52468.47;5066149;28;20000;-76
2021/08/21 01:26:27;;;;;;;;;;;;;;;-144.99;99.69;52476.63;5065613;28;20068;-76
2021/08/21 01:28:55;;;;;;;;;;;;;;;-144.99;99.45;52476.63;5078465;28;19987;-77
2021/08/21 01:31:21;;;;;;;;;;;;;;;-144.99;99.44;52474.59;5064874;28;19987;-76
2021/08/21 01:33:47;;;;;;;;;;;;;;;-144.99;99.67;52452.16;5054403;28;19997;-75
2021/08/21 01:36:14;;;;;;;;;;;;;;;-144.99;99.66;52474.59;5053338;28;20035;-78
2021/08/21 01:38:55;;;;;;;;;;;;;;;-144.99;99.42;52462.34;5063925;28;20226;-76
2021/08/21 01:41:21;;;;;;;;;;;;;;;-144.99;99.48;52497.00;5066631;28;19997;-78
2021/08/21 01:43:47;;;;;;;;;;;;;;;-144.99;100.00;52454.22;5054519;28;19997;-77
2021/08/21 01:46:15;;;;;;;;;;;;;;;-144.99;100.00;52439.94;5061787;28;19976;-77
2021/08/21 01:48:41;;;;;;;;;;;;;;;-144.99;100.00;52480.72;5075766;28;20443;-74
2021/08/21 01:51:08;;;;;;;;;;;;;;;-144.99;100.00;52460.31;5075768;28;20520;-75
2021/08/21 01:53:34;;;;;;;;;;;;;;;-144.99;100.00;52470.50;5077639;28;20000;-75
2021/08/21 01:56:00;;;;;;;;;;;;;;;-144.99;100.00;52456.25;5066790;28;19977;-76
2021/08/21 01:58:27;;;;;;;;;;;;;;;-144.99;100.00;52476.63;5054570;28;19981;-77
2021/08/21 02:00:53;;;;;;;;;;;;;;;-144.99;100.00;52476.63;5054416;28;20364;-75
2021/08/21 02:03:21;;;;;;;;;;;;;;;-144.99;100.00;52497.00;5069311;28;20016;-75
2021/08/21 02:05:47;;;;;;;;;;;;;;;-144.99;100.00;52478.66;5058358;28;19984;-75
2021/08/21 02:08:13;;;;;;;;;;;;;;;-144.99;99.66;52456.25;5066101;28;20075;-74
2021/08/21 02:10:40;;;;;;;;;;;;;;;-144.99;99.64;52501.09;5054311;28;20355;-75
2021/08/21 02:13:06;;;;;;;;;;;;;;;-144.99;99.69;52468.47;5055718;28;19997;-74
2021/08/21 02:15:32;;;;;;;;;;;;;;;-144.99;99.56;52492.94;5062779;28;19983;-76
2021/08/21 02:17:59;;;;;;;;;;;;;;;-144.99;99.51;52476.63;5077689;28;20507;-74
2021/08/21 02:20:27;;;;;;;;;;;;;;;-144.99;99.52;52450.13;5067383;28;19991;-74
2021/08/21 02:22:53;;;;;;;;;;;;;;;-144.99;99.50;52464.41;5068325;28;20032;-73
2021/08/21 02:25:19;;;;;;;;;;;;;;;-144.99;99.40;52472.56;5065893;28;19990;-74
2021/08/21 02:27:55;;;;;;;;;;;;;;;-144.99;99.53;52501.09;5058557;28;20054;-73
2021/08/21 02:30:22;;;;;;;;;;;;;;;-144.99;100.00;52472.56;5057639;28;20037;-73
2021/08/21 02:32:49;;;;;;;;;;;;;;;-144.99;99.96;52468.47;5068991;28;20002;-77
2021/08/21 02:35:15;;;;;;;;;;;;;;;-144.99;99.76;52509.25;5061400;28;19989;-73
2021/08/21 02:37:43;;;;;;;;;;;;;;;-144.99;99.88;52505.16;5057662;28;19975;-75
2021/08/21 02:40:10;;;;;;;;;;;;;;;-144.99;99.86;52492.94;5079116;28;20002;-75
2021/08/21 02:42:36;;;;;;;;;;;;;;;-144.99;100.00;52468.47;5067630;28;19967;-79
2021/08/21 02:45:03;;;;;;;;;;;;;;;-144.99;100.00;52521.47;5056625;28;19995;-75
2021/08/21 02:47:29;;;;;;;;;;;;;;;-144.99;100.00;52472.56;5051779;28;19982;-74
2021/08/21 02:49:55;;;;;;;;;;;;;;;-144.99;100.00;52484.78;5051243;28;19988;-75
2021/08/21 02:52:22;;;;;;;;;;;;;;;-144.99;100.00;52486.81;5064263;28;20358;-74
2021/08/21 02:54:49;;;;;;;;;;;;;;;-144.99;100.00;52488.84;5053312;28;19997;-73
2021/08/21 02:57:16;;;;;;;;;;;;;;;-144.99;100.00;52468.47;5056047;28;19975;-74
2021/08/21 02:59:42;;;;;;;;;;;;;;;-144.99;100.00;52492.94;5051387;28;19979;-74
2021/08/21 03:02:08;;;;;;;;;;;;;;;-144.99;100.00;52486.81;5058389;28;19975;-74
2021/08/21 03:04:35;;;;;;;;;;;;;;;-144.99;100.00;52456.25;5059276;28;19994;-74
2021/08/21 03:07:01;;;;;;;;;;;;;;;-144.99;100.00;52472.56;5050573;28;20378;-73
2021/08/21 03:09:27;;;;;;;;;;;;;;;-144.99;100.00;52456.25;5061609;28;19982;-74
2021/08/21 03:11:55;;;;;;;;;;;;;;;-144.99;100.00;52494.97;5051134;28;19975;-73
2021/08/21 03:14:21;;;;;;;;;;;;;;;-144.99;100.00;52525.56;5058607;28;19980;-75
2021/08/21 03:16:48;;;;;;;;;;;;;;;-144.99;100.00;52468.47;5057835;28;19978;-74
2021/08/21 03:19:14;;;;;;;;;;;;;;;-144.99;100.00;52488.84;5062335;28;19979;-72
2021/08/21 03:21:40;;;;;;;;;;;;;;;-144.99;100.00;52513.31;5062023;28;19999;-73
2021/08/21 03:24:07;;;;;;;;;;;;;;;-144.99;100.00;52460.31;5071195;28;19925;-74
2021/08/21 03:26:33;;;;;;;;;;;;;;;-144.99;100.00;52446.06;5069621;28;19978;-73
2021/08/21 03:29:01;;;;;;;;;;;;;;;-144.99;100.00;52492.94;5051439;28;19990;-74
2021/08/21 03:31:27;;;;;;;;;;;;;;;-144.99;100.00;52462.34;5050511;28;19990;-73
2021/08/21 03:33:53;;;;;;;;;;;;;;;-144.99;100.00;52488.84;5056595;28;20454;-74
2021/08/21 03:36:20;;;;;;;;;;;;;;;-144.99;100.00;52472.56;5051505;28;19983;-75
2021/08/21 03:38:46;;;;;;;;;;;;;;;-144.99;100.00;52492.94;5055280;28;20066;-74
2021/08/21 03:41:12;;;;;;;;;;;;;;;-144.99;100.00;52505.16;5070626;28;20488;-72
2021/08/21 03:43:39;;;;;;;;;;;;;;;-144.99;100.00;52505.16;5060250;28;19995;-75
2021/08/21 03:46:06;;;;;;;;;;;;;;;-144.99;100.00;52501.09;5050971;28;20023;-73
2021/08/21 03:48:33;;;;;;;;;;;;;;;-144.99;100.00;52488.84;5049554;28;19982;-74
2021/08/21 03:50:59;;;;;;;;;;;;;;;-144.99;100.00;52476.63;5049930;28;19977;-73
2021/08/21 03:53:25;;;;;;;;;;;;;;;-144.99;100.00;52456.25;5050019;28;20006;-73
2021/08/21 03:55:51;;;;;;;;;;;;;;;-144.99;100.00;52427.72;5066897;28;19978;-74
2021/08/21 03:58:18;;;;;;;;;;;;;;;-144.99;100.00;52476.63;5058361;28;19991;-74
2021/08/21 04:00:44;;;;;;;;;;;;;;;-144.99;100.00;52492.94;5048122;28;19986;-77
2021/08/21 04:03:12;;;;;;;;;;;;;;;-144.99;100.00;52446.06;5055897;28;19994;-74
2021/08/21 04:05:39;;;;;;;;;;;;;;;-144.99;100.00;52444.03;5046908;28;20071;-74
2021/08/21 04:08:05;;;;;;;;;;;;;;;-144.99;100.00;52488.84;5057966;28;19983;-74
2021/08/21 04:10:32;;;;;;;;;;;;;;;-144.99;100.00;52452.16;5051503;28;20005;-75
2021/08/21 04:12:58;;;;;;;;;;;;;;;-144.99;100.00;52458.28;5050946;28;20608;-74
2021/08/21 04:15:24;;;;;;;;;;;;;;;-144.99;100.00;52478.66;5050249;28;20024;-76
2021/08/21 04:17:51;;;;;;;;;;;;;;;-144.99;100.00;52452.16;5060901;28;19979;-77
2021/08/21 04:20:19;;;;;;;;;;;;;;;-144.99;100.00;52484.78;5052306;28;20000;-76
2021/08/21 04:22:45;;;;;;;;;;;;;;;-144.99;100.00;52452.16;5049649;28;20470;-76
2021/08/21 04:25:12;;;;;;;;;;;;;;;-144.99;100.00;52456.25;5050369;28;19995;-75
2021/08/21 04:27:38;;;;;;;;;;;;;;;-144.99;100.00;52452.16;5050147;28;19980;-75
2021/08/21 04:30:05;;;;;;;;;;;;;;;-144.99;100.00;52480.72;5047785;28;19986;-75
2021/08/21 04:32:31;;;;;;;;;;;;;;;-144.99;100.00;52401.22;5052150;28;20086;-76
2021/08/21 04:34:58;;;;;;;;;;;;;;;-144.99;100.00;52468.47;5052217;28;20334;-74
2021/08/21 04:37:25;;;;;;;;;;;;;;;-144.99;100.00;52452.16;5058558;28;19976;-74
2021/08/21 04:39:52;;;;;;;;;;;;;;;-144.99;100.00;52454.22;5050484;28;19986;-75
2021/08/21 04:42:18;;;;;;;;;;;;;;;-144.99;100.00;52456.25;5053161;28;19999;-74
2021/08/21 04:44:44;;;;;;;;;;;;;;;-144.99;100.00;52444.03;5054825;28;19983;-74
2021/08/21 04:47:11;;;;;;;;;;;;;;;-144.99;100.00;52464.41;5055647;28;19984;-74
2021/08/21 04:49:37;;;;;;;;;;;;;;;-144.99;100.00;52480.72;5056172;28;19986;-74
2021/08/21 04:52:04;;;;;;;;;;;;;;;-144.99;100.00;52444.03;5055350;28;20075;-76
2021/08/21 04:54:32;;;;;;;;;;;;;;;-144.99;100.00;52480.72;5056666;28;19987;-75
2021/08/21 04:56:58;;;;;;;;;;;;;;;-144.99;100.00;52456.25;5067824;28;19976;-77
2021/08/21 04:59:25;;;;;;;;;;;;;;;-144.99;100.00;52501.09;5063648;28;19978;-74
2021/08/21 05:01:51;;;;;;;;;;;;;;;-144.99;100.00;52448.09;5069115;28;20021;-74
2021/08/21 05:04:17;;;;;;;;;;;;;;;-144.99;100.00;52437.91;5074035;28;19992;-73
2021/08/21 05:06:44;;;;;;;;;;;;;;;-144.99;100.00;52452.16;5066876;28;19925;-73
2021/08/21 05:09:10;;;;;;;;;;;;;;;-144.99;100.00;52480.72;5071436;28;20083;-73
2021/08/21 05:11:38;;;;;;;;;;;;;;;-144.99;100.00;52488.84;5071999;28;19948;-76
2021/08/21 05:14:04;;;;;;;;;;;;;;;-144.99;100.00;52460.31;5078087;28;20018;-75
2021/08/21 05:16:30;;;;;;;;;;;;;;;-144.99;100.00;52460.31;5086942;28;19991;-75
2021/08/21 05:19:02;;;;;;;;;;;;;;;-144.99;100.00;52435.88;5077266;28;20007;-75
2021/08/21 05:21:30;;;;;;;;;;;;;;;-144.99;100.00;52464.41;5071143;28;19992;-75
2021/08/21 05:23:57;;;;;;;;;;;;;;;-144.99;100.00;52464.41;5060372;28;20007;-73
2021/08/21 05:26:23;;;;;;;;;;;;;;;-144.99;100.00;52452.16;5073438;28;19979;-74
2021/08/21 05:28:51;;;;;;;;;;;;;;;-144.99;100.00;52452.16;5078529;28;20000;-73
2021/08/21 05:31:17;;;;;;;;;;;;;;;-144.99;100.00;52419.56;5063679;28;20371;-75
2021/08/21 05:33:44;;;;;;;;;;;;;;;-144.99;100.00;52439.94;5064535;28;19993;-73
2021/08/21 05:36:10;;;;;;;;;;;;;;;-144.99;100.00;52456.25;5060914;28;20044;-73
2021/08/21 05:38:37;;;;;;;;;;;;;;;-144.99;100.00;52452.16;5064546;28;19951;-76
2021/08/21 05:41:03;;;;;;;;;;;;;;;-144.99;100.00;52431.78;5081502;28;19996;-73
2021/08/21 05:43:30;;;;;;;;;;;;;;;-144.99;100.00;52433.81;5080714;28;20002;-73
2021/08/21 05:45:57;;;;;;;;;;;;;;;-144.99;100.00;52456.25;5079176;28;19991;-74
2021/08/21 05:48:24;;;;;;;;;;;;;;;-144.99;100.00;52431.78;5074282;28;19980;-73
2021/08/21 05:50:50;;;;;;;;;;;;;;;-144.99;100.00;52391.03;5073223;28;20379;-74
2021/08/21 05:53:16;;;;;;;;;;;;;;;-144.99;100.00;52452.16;5073802;28;20008;-74
2021/08/21 05:55:42;;;;;;;;;;;;;;;-144.99;100.00;52407.31;5071173;28;20062;-74
2021/08/21 05:58:09;;;;;;;;;;;;;;;-144.99;100.00;52431.78;5055327;28;19981;-75
2021/08/21 06:00:35;;;;;;;;;;;;;;;-144.99;100.00;52427.72;5052962;28;19988;-75
2021/08/21 06:03:03;;;;;;;;;;;;;;;-144.99;100.00;52415.47;5066473;28;20480;-75
2021/08/21 06:05:29;;;;;;;;;;;;;;;-144.99;100.00;52448.09;5053056;28;20476;-75
2021/08/21 06:07:55;;;;;;;;;;;;;;;-144.99;100.00;52413.44;5058160;28;19980;-75
2021/08/21 06:10:22;;;;;;;;;;;;;;;-144.99;100.00;52397.13;5054533;28;20004;-75
2021/08/21 06:12:48;;;;;;;;;;;;;;;-144.99;100.00;52448.09;5052517;28;20003;-75
2021/08/21 06:15:14;;;;;;;;;;;;;;;-144.99;100.00;52403.25;5052456;28;20039;-75
2021/08/21 06:17:41;;;;;;;;;;;;;;;-144.99;100.00;52354.34;5060321;28;19984;-76
2021/08/21 06:20:09;;;;;;;;;;;;;;;-144.99;100.00;52403.25;5056745;28;19977;-75
2021/08/21 06:22:35;;;;;;;;;;;;;;;-144.99;99.67;52386.94;5072967;28;20001;-77
2021/08/21 06:25:02;;;;;;;;;;;;;;;-144.99;99.59;52448.09;5073622;28;19984;-77
2021/08/21 06:27:28;;;;;;;;;;;;;;;-144.99;99.44;52417.53;5073607;28;19992;-77
2021/08/21 06:29:54;;;;;;;;;;;;;;;-144.99;98.97;52399.19;5063500;28;19995;-76
2021/08/21 06:32:20;;;;;;;;;;;;;;;-144.99;99.38;52423.63;5053838;28;20400;-77
2021/08/21 06:34:47;;;;;;;;;;;;;;;-144.99;98.87;52360.44;5056895;28;20014;-76
2021/08/21 06:37:14;;;;;;;;;;;;;;;-144.99;98.46;52388.97;5050202;28;19981;-76
2021/08/21 06:39:41;;;;;;;;;;;;;;;-144.99;97.88;52376.75;5066758;28;20359;-77
2021/08/21 06:42:07;;;;;;;;;;;;;;;-144.99;96.57;52399.19;5072850;28;19997;-76
2021/08/21 06:44:33;;;;;;;;;;;;;;;-144.99;95.89;52395.09;5073565;28;19981;-77
2021/08/21 06:47:00;;;;;;;;;;;;;;;-144.99;95.74;52431.78;5072761;28;19980;-77
2021/08/21 06:49:26;;;;;;;;;;;;;;;-144.99;94.04;52395.09;5072081;28;19980;-78
2021/08/21 06:51:52;;;;;;;;;;;;;;;-144.99;93.91;52354.34;5071731;28;20412;-76
2021/08/21 06:54:20;;;;;;;;;;;;;;;-144.99;93.22;52386.94;5073336;28;19999;-77
2021/08/21 06:56:46;;;;;;;;;;;;;;;-144.99;93.58;52366.56;5059789;28;19982;-75
2021/08/21 06:59:13;;;;;;;;;;;;;;;-144.99;93.27;52354.34;5052130;28;20494;-75
2021/08/21 07:01:39;;;;;;;;;;;;;;;-144.99;93.16;52366.56;5055949;28;19995;-76
2021/08/21 07:04:05;;;;;;;;;;;;;;;-144.99;93.21;52382.88;5064024;28;20353;-76
2021/08/21 07:06:32;;;;;;;;;;;;;;;-144.99;92.79;52386.94;5054484;28;19985;-75
2021/08/21 07:08:58;;;;;;;;;;;;;;;-144.99;92.63;52376.75;5062068;28;19977;-70
2021/08/21 07:11:26;;;;;;;;;;;;;;;-144.99;91.36;52362.50;5050748;28;19987;-71
2021/08/21 07:13:52;;;;;;;;;;;;;;;-144.99;90.55;52382.88;5051133;28;20278;-71
2021/08/21 07:16:18;;;;;;;;;;;;;;;-144.99;89.67;52370.63;5061259;28;20657;-70
2021/08/21 07:18:45;;;;;;;;;;;;;;;-144.99;88.88;52380.84;5052682;28;19998;-71
2021/08/21 07:21:11;;;;;;;;;;;;;;;-144.99;88.61;52391.03;5057469;28;20375;-70
2021/08/21 07:23:38;;;;;;;;;;;;;;;-144.99;88.00;52372.69;5070209;28;19999;-70
2021/08/21 07:26:04;;;;;;;;;;;;;;;-144.99;87.28;52350.25;5070690;28;19954;-71
2021/08/21 07:28:32;;;;;;;;;;;;;;;-144.99;85.77;52415.47;5068963;28;20000;-71
2021/08/21 07:30:58;;;;;;;;;;;;;;;-144.99;85.86;52366.56;5053482;28;19984;-71
2021/08/21 07:33:25;;;;;;;;;;;;;;;-144.99;85.32;52362.50;5054470;28;20503;-72
2021/08/21 07:35:51;;;;;;;;;;;;;;;-144.99;83.85;52342.09;5050327;28;19992;-69
2021/08/21 07:38:18;;;;;;;;;;;;;;;-144.99;82.76;52354.34;5053159;28;19983;-80
2021/08/21 07:40:44;;;;;;;;;;;;;;;-144.99;81.44;52354.34;5075786;28;19980;-79
2021/08/21 07:43:11;;;;;;;;;;;;;;;-144.99;81.39;52338.03;5070808;28;20000;-80
2021/08/21 07:45:39;;;;;;;;;;;;;;;-144.99;81.35;52350.25;5056237;28;19981;-79
2021/08/21 07:48:05;;;;;;;;;;;;;;;-144.99;81.66;52336.00;5061162;28;20199;-79
2021/08/21 07:50:32;;;;;;;;;;;;;;;-144.99;81.23;52370.63;5061240;28;20467;-78
2021/08/21 07:52:58;;;;;;;;;;;;;;;-144.99;80.93;52329.88;5061106;28;19996;-79
2021/08/21 07:55:25;;;;;;;;;;;;;;;-144.99;80.81;52380.84;5067081;28;19968;-79
2021/08/21 07:57:51;;;;;;;;;;;;;;;-144.99;80.46;52368.59;5054615;28;20235;-79
2021/08/21 08:00:19;;;;;;;;;;;;;;;-144.99;80.60;52350.25;5054681;28;19981;-81
2021/08/21 08:02:47;;;;;;;;;;;;;;;-144.99;79.43;52338.03;5069401;28;20063;-79
2021/08/21 08:05:13;;;;;;;;;;;;;;;-144.99;78.89;52333.94;5065902;28;19980;-80
2021/08/21 08:07:40;;;;;;;;;;;;;;;-144.99;78.31;52372.69;5062786;28;19976;-78
2021/08/21 08:10:07;;;;;;;;;;;;;;;-144.99;77.44;52374.72;5056706;28;20445;-81
2021/08/21 08:12:33;;;;;;;;;;;;;;;-144.99;77.38;52333.94;5065731;28;19995;-79
2021/08/21 08:15:00;;;;;;;;;;;;;;;-144.99;78.13;52329.88;5056973;28;19988;-79
2021/08/21 08:17:26;;;;;;;;;;;;;;;-144.99;78.01;52325.81;5071724;28;20462;-74
2021/08/21 08:19:54;;;;;;;;;;;;;;;-144.99;77.55;52317.66;5053768;28;20536;-73
2021/08/21 08:22:20;;;;;;;;;;;;;;;-144.99;77.67;52313.56;5050681;28;20101;-74
2021/08/21 08:24:47;;;;;;;;;;;;;;;-144.99;77.12;52303.38;5065088;28;20033;-75
2021/08/21 08:27:15;;;;;;;;;;;;;;;-144.99;75.22;52342.09;5072580;28;20459;-73
2021/08/21 08:29:41;;;;;;;;;;;;;;;-144.99;74.80;52362.50;5066047;28;20003;-73
2021/08/21 08:32:08;;;;;;;;;;;;;;;-144.99;74.18;52346.19;5051409;28;20410;-74
2021/08/21 08:34:34;;;;;;;;;;;;;;;-144.99;70.57;52336.00;5056506;28;20071;-75
2021/08/21 08:37:02;;;;;;;;;;;;;;;-144.99;71.31;52327.84;5059383;28;20006;-74
2021/08/21 08:39:28;;;;;;;;;;;;;;;-144.99;71.29;52293.19;5050313;28;19979;-75
2021/08/21 08:41:55;;;;;;;;;;;;;;;-144.99;69.21;52289.13;5056577;28;19991;-76
2021/08/21 08:44:23;;;;;;;;;;;;;;;-144.99;68.86;52313.56;5066021;28;19982;-76
2021/08/21 08:46:51;;;;;;;;;;;;;;;-144.99;68.93;52309.50;5072916;28;19969;-75
2021/08/21 08:49:17;;;;;;;;;;;;;;;-144.99;68.88;52289.13;5060285;28;20050;-76
2021/08/21 08:51:44;;;;;;;;;;;;;;;-144.99;68.73;52354.34;5057725;28;19975;-76
2021/08/21 08:54:12;;;;;;;;;;;;;;;-144.99;68.39;52285.03;5055875;28;20002;-73
2021/08/21 08:56:38;;;;;;;;;;;;;;;-144.99;68.10;52301.34;5059769;28;19939;-75
2021/08/21 08:59:04;;;;;;;;;;;;;;;-144.99;67.81;52295.22;5055405;28;19978;-74
2021/08/21 09:01:31;;;;;;;;;;;;;;;-144.99;68.31;52321.72;5057477;28;19976;-75
2021/08/21 09:04:12;;;;;;;;;;;;;;;-144.99;67.40;52313.56;5056269;28;20052;-74
2021/08/21 09:06:38;;;;;;;;;;;;;;;-144.99;67.20;52317.66;5058644;28;19979;-74
2021/08/21 09:09:12;;;;;;;;;;;;;;;-144.99;65.71;52315.59;5060674;28;19975;-75
2021/08/21 09:11:43;;;;;;;;;;;;;;;-144.99;65.75;52313.56;5066304;28;19980;-76
2021/08/21 09:14:17;;;;;;;;;;;;;;;-144.99;66.01;52305.41;5055151;28;19996;-74
2021/08/21 09:16:43;;;;;;;;;;;;;;;-144.99;65.21;52342.09;5056560;28;19980;-76
2021/08/21 09:19:09;;;;;;;;;;;;;;;-144.99;64.63;52317.66;5061008;28;20005;-75
2021/08/21 09:21:36;;;;;;;;;;;;;;;-144.99;63.83;52325.81;5065482;28;20398;-76
2021/08/21 09:24:22;;;;;;;;;;;;;;;-144.99;64.14;52297.25;5061726;28;20065;-76
2021/08/21 09:26:50;;;;;;;;;;;;;;;-144.99;63.47;52280.97;5063462;28;19979;-75
2021/08/21 09:29:23;;;;;;;;;;;;;;;-144.99;63.11;52268.72;5074595;28;19975;-75
2021/08/21 09:31:49;;;;;;;;;;;;;;;-144.99;62.22;52285.03;5067059;28;19971;-75
2021/08/21 09:34:19;;;;;;;;;;;;;;;-144.99;58.81;52276.88;5057574;28;19991;-77
2021/08/21 09:36:45;;;;;;;;;;;;;;;-144.99;60.17;52285.03;5053252;28;20527;-76
2021/08/21 09:39:13;;;;;;;;;;;;;;;-144.99;60.00;52295.22;5068943;28;19975;-76
2021/08/21 09:41:53;;;;;;;;;;;;;;;-144.99;59.84;52280.97;5067372;28;19990;-75
2021/08/21 09:44:25;;;;;;;;;;;;;;;-144.99;59.08;52246.31;5059643;28;19989;-76
2021/08/21 09:47:08;;;;;;;;;;;;;;;-144.99;60.00;52293.19;5070663;28;20003;-74
2021/08/21 09:49:34;;;;;;;;;;;;;;;-144.99;59.53;52244.28;5065732;28;20127;-75
2021/08/21 09:52:05;;;;;;;;;;;;;;;-144.99;57.32;52227.97;5054731;28;19981;-75
2021/08/21 09:54:31;;;;;;;;;;;;;;;-144.99;57.55;52264.66;5053842;28;20179;-75
2021/08/21 09:56:59;;;;;;;;;;;;;;;-144.99;56.62;52232.03;5072605;28;19950;-74
2021/08/21 09:59:36;;;;;;;;;;;;;;;-144.99;54.08;52244.28;5058362;28;19956;-77
2021/08/21 10:02:04;;;;;;;;;;;;;;;-144.99;54.53;52268.72;5039677;28;20059;-76
2021/08/21 10:04:31;;;;;;;;;;;;;;;-144.99;55.40;52260.56;5054212;28;19961;-75
2021/08/21 10:06:57;;;;;;;;;;;;;;;-144.99;54.04;52252.44;5066229;28;19971;-75
2021/08/21 10:09:24;;;;;;;;;;;;;;;-144.99;54.53;52232.03;5055138;28;19953;-75
2021/08/21 10:11:52;;;;;;;;;;;;;;;-144.99;53.19;52252.44;5061467;28;20006;-78
2021/08/21 10:14:20;;;;;;;;;;;;;;;-144.99;53.67;52236.13;5057591;28;20328;-76
2021/08/21 10:16:48;;;;;;;;;;;;;;;-144.99;53.03;52207.59;5054142;28;19976;-75
2021/08/21 10:19:16;;;;;;;;;;;;;;;-144.99;52.28;52211.66;5064703;28;19951;-77
2021/08/21 10:21:48;;;;;;;;;;;;;;;-144.99;51.98;52195.34;5052404;28;19953;-75
2021/08/21 10:24:14;;;;;;;;;;;;;;;-144.99;50.18;52205.53;5056983;28;19973;-75
2021/08/21 10:26:42;;;;;;;;;;;;;;;-144.99;49.43;52232.03;5059619;28;19958;-76
2021/08/21 10:29:10;;;;;;;;;;;;;;;-144.99;49.77;52195.34;5051010;28;20026;-75
2021/08/21 10:31:39;;;;;;;;;;;;;;;-144.99;50.87;52170.91;5051936;28;20070;-74
2021/08/21 10:34:06;;;;;;;;;;;;;;;-144.99;48.62;52185.16;5062239;28;19957;-75
2021/08/21 10:36:42;;;;;;;;;;;;;;;-144.99;48.40;52211.66;5052342;28;20314;-76
2021/08/21 10:39:23;;;;;;;;;;;;;;;-144.99;48.24;52211.66;5055094;28;20324;-76
2021/08/21 10:41:49;;;;;;;;;;;;;;;-144.99;48.38;52179.06;5047071;28;20051;-76
2021/08/21 10:44:34;;;;;;;;;;;;;;;-144.99;48.01;52162.75;5052227;28;19957;-79
2021/08/21 10:47:02;;;;;;;;;;;;;;;-144.99;48.85;52146.44;5053869;28;19953;-76
2021/08/21 10:49:42;;;;;;;;;;;;;;;-144.99;48.31;52146.44;5050491;28;19966;-78
2021/08/21 10:52:28;;;;;;;;;;;;;;;-144.99;47.88;52215.75;5061365;28;20012;-76
2021/08/21 10:54:55;;;;;;;;;;;;;;;-144.99;48.53;52187.19;5053983;28;19947;-77
2021/08/21 10:57:28;;;;;;;;;;;;;;;-144.99;48.17;52195.34;5057036;28;20019;-76
2021/08/21 10:59:55;;;;;;;;;;;;;;;-144.99;47.92;52158.66;5053297;28;20040;-76
2021/08/21 11:02:42;;;;;;;;;;;;;;;-144.99;48.15;52166.81;5048568;28;19964;-77
2021/08/21 11:05:28;;;;;;;;;;;;;;;-144.99;48.40;52162.75;5058071;28;20349;-77
2021/08/21 11:08:02;;;;;;;;;;;;;;;-144.99;48.79;52223.88;5053899;28;19959;-76
2021/08/21 11:10:30;;;;;;;;;;;;;;;-144.99;47.70;52187.19;5048825;28;19944;-78
2021/08/21 11:12:56;;;;;;;;;;;;;;;-144.99;47.23;52146.44;5051526;28;20352;-77
2021/08/21 11:15:23;;;;;;;;;;;;;;;-144.99;46.10;52073.06;5061993;28;19940;-75
2021/08/21 11:17:51;;;;;;;;;;;;;;;-144.99;44.72;52062.88;5054509;28;19929;-76
2021/08/21 11:20:25;;;;;;;;;;;;;;;-144.99;44.71;52085.31;5052291;28;19959;-76
2021/08/21 11:23:06;;;;;;;;;;;;;;;-144.99;44.90;52130.13;5068254;28;19924;-77
2021/08/21 11:25:33;;;;;;;;;;;;;;;-144.99;44.83;52179.06;5072047;28;19932;-77
2021/08/21 11:28:02;;;;;;;;;;;;;;;-144.99;45.97;52215.75;5052502;28;19925;-77
2021/08/21 11:30:28;;;;;;;;;;;;;;;-144.99;46.10;52105.69;5055013;28;20366;-78
2021/08/21 11:33:04;;;;;;;;;;;;;;;-144.99;46.21;52126.06;5058072;28;19971;-78
2021/08/21 11:35:32;;;;;;;;;;;;;;;-144.99;45.33;52105.69;5049951;28;20362;-77
2021/08/21 11:37:59;;;;;;;;;;;;;;;-144.99;44.62;52162.75;5053520;28;19942;-77
2021/08/21 11:40:32;;;;;;;;;;;;;;;-144.99;46.23;52203.50;5054914;28;19950;-78
2021/08/21 11:42:59;;;;;;;;;;;;;;;-144.99;46.35;52119.94;5057499;28;20019;-76
2021/08/21 11:45:25;;;;;;;;;;;;;;;-144.99;46.08;52170.91;5070039;28;19956;-77
2021/08/21 11:47:52;;;;;;;;;;;;;;;-144.99;45.93;52121.97;5037965;28;19976;-76
2021/08/21 11:50:23;;;;;;;;;;;;;;;-144.99;46.28;52124.03;5050809;28;20310;-76
2021/08/21 11:52:50;;;;;;;;;;;;;;;-144.99;44.61;52081.22;5059669;28;19989;-78
2021/08/21 11:55:17;;;;;;;;;;;;;;;-144.99;43.52;52071.03;5071007;28;20422;-77
2021/08/21 11:57:44;;;;;;;;;;;;;;;-144.99;43.15;52174.97;5052535;28;19950;-78
2021/08/21 12:00:11;;;;;;;;;;;;;;;-144.99;43.72;52069.00;5054243;28;19969;-76
2021/08/21 12:02:44;;;;;;;;;;;;;;;-144.99;43.60;52073.06;5052984;28;19963;-77
2021/08/21 12:05:10;;;;;;;;;;;;;;;-144.99;43.65;52073.06;5052924;28;20329;-76
2021/08/21 12:07:38;;;;;;;;;;;;;;;-144.99;43.78;52179.06;5059043;22;19965;-81
2021/08/21 12:10:04;;;;;;;;;;;;;;;-144.99;43.80;52162.75;5022873;28;20446;-81
2021/08/21 12:12:33;;;;;;;;;;;;;;;-144.99;43.61;52187.19;5048052;28;19954;-79
2021/08/21 12:14:59;;;;;;;;;;;;;;;-144.99;44.98;52183.13;5038394;28;19951;-81
2021/08/21 12:17:26;;;;;;;;;;;;;;;-144.99;45.22;52097.53;5033748;28;19954;-82
2021/08/21 12:19:52;;;;;;;;;;;;;;;-144.99;46.22;52191.28;5016321;28;20228;-81
2021/08/21 12:22:19;;;;;;;;;;;;;;;-144.99;43.84;52101.59;5032217;28;19936;-80
2021/08/21 12:24:53;;;;;;;;;;;;;;;-144.99;43.61;52130.13;5007309;28;19964;-80